sensor_id;sensor_type;location;lat;lon;timestamp;pressure;altitude;pressure_sealevel;temperature;humidity
50394;BME280;36308;46.312;25.288;2023-04-02T00:04:44;94729.66;;;8.39;75.00
50394;BME280;36308;46.312;25.288;2023-04-02T00:07:27;94725.88;;;8.40;75.09
50394;BME280;36308;46.312;25.288;2023-04-02T00:09:57;94727.22;;;8.42;75.24
50394;BME280;36308;46.312;25.288;2023-04-02T00:12:23;94734.22;;;8.43;75.31
50394;BME280;36308;46.312;25.288;2023-04-02T00:14:52;94728.31;;;8.41;75.58
50394;BME280;36308;46.312;25.288;2023-04-02T00:17:20;94729.91;;;8.42;75.83
50394;BME280;36308;46.312;25.288;2023-04-02T00:19:59;94735.78;;;8.44;75.64
50394;BME280;36308;46.312;25.288;2023-04-02T00:22:29;94732.59;;;8.47;75.57
50394;BME280;36308;46.312;25.288;2023-04-02T00:24:59;94731.50;;;8.48;75.28
50394;BME280;36308;46.312;25.288;2023-04-02T00:27:26;94738.47;;;8.49;75.89
50394;BME280;36308;46.312;25.288;2023-04-02T00:29:54;94737.38;;;8.50;75.37
50394;BME280;36308;46.312;25.288;2023-04-02T00:32:40;94735.22;;;8.53;75.25
50394;BME280;36308;46.312;25.288;2023-04-02T00:35:14;94736.84;;;8.54;75.36
50394;BME280;36308;46.312;25.288;2023-04-02T00:37:43;94735.47;;;8.56;75.29
50394;BME280;36308;46.312;25.288;2023-04-02T00:40:18;94737.88;;;8.58;75.22
50394;BME280;36308;46.312;25.288;2023-04-02T00:42:45;94742.16;;;8.59;75.49
50394;BME280;36308;46.312;25.288;2023-04-02T00:45:25;94737.88;;;8.58;74.86
50394;BME280;36308;46.312;25.288;2023-04-02T00:47:53;94745.34;;;8.61;75.59
50394;BME280;36308;46.312;25.288;2023-04-02T00:52:50;94751.81;;;8.60;75.15
50394;BME280;36308;46.312;25.288;2023-04-02T00:55:33;94747.25;;;8.60;74.83
50394;BME280;36308;46.312;25.288;2023-04-02T00:58:00;94748.84;;;8.61;74.88
50394;BME280;36308;46.312;25.288;2023-04-02T01:00:31;94747.75;;;8.62;74.65
50394;BME280;36308;46.312;25.288;2023-04-02T01:05:46;94757.41;;;8.63;74.70
50394;BME280;36308;46.312;25.288;2023-04-02T01:23:06;94774.28;;;8.64;74.41
50394;BME280;36308;46.312;25.288;2023-04-02T01:25:41;94774.28;;;8.64;73.54
50394;BME280;36308;46.312;25.288;2023-04-02T01:30:37;94770.53;;;8.65;73.70
50394;BME280;36308;46.312;25.288;2023-04-02T01:33:04;94770.53;;;8.65;73.66
50394;BME280;36308;46.312;25.288;2023-04-02T01:35:33;94775.88;;;8.65;73.75
50394;BME280;36308;46.312;25.288;2023-04-02T01:38:21;94779.66;;;8.64;73.92
50394;BME280;36308;46.312;25.288;2023-04-02T01:46:27;94779.66;;;8.64;73.33
50394;BME280;36308;46.312;25.288;2023-04-02T01:48:54;94779.13;;;8.62;73.61
50394;BME280;36308;46.312;25.288;2023-04-02T01:51:30;94784.47;;;8.62;73.87
50394;BME280;36308;46.312;25.288;2023-04-02T01:53:58;94782.06;;;8.60;73.82
50394;BME280;36308;46.312;25.288;2023-04-02T01:56:26;94786.63;;;8.60;74.03
50394;BME280;36308;46.312;25.288;2023-04-02T02:02:13;94788.75;;;8.63;73.93
50394;BME280;36308;46.312;25.288;2023-04-02T02:04:40;94794.94;;;8.63;73.65
50394;BME280;36308;46.312;25.288;2023-04-02T02:07:12;94807.22;;;8.64;74.44
50394;BME280;36308;46.312;25.288;2023-04-02T02:13:01;94805.88;;;8.67;74.12
50394;BME280;36308;46.312;25.288;2023-04-02T02:15:29;94808.03;;;8.65;73.78
50394;BME280;36308;46.312;25.288;2023-04-02T02:18:04;94799.47;;;8.63;74.28
50394;BME280;36308;46.312;25.288;2023-04-02T02:20:32;94805.09;;;8.66;74.09
50394;BME280;36308;46.312;25.288;2023-04-02T02:22:59;94809.66;;;8.66;74.01
50394;BME280;36308;46.312;25.288;2023-04-02T02:25:33;94807.22;;;8.64;74.53
50394;BME280;36308;46.312;25.288;2023-04-02T02:28:18;94807.22;;;8.64;73.87
50394;BME280;36308;46.312;25.288;2023-04-02T02:30:52;94824.09;;;8.65;74.58
50394;BME280;36308;46.312;25.288;2023-04-02T02:33:42;94824.09;;;8.65;74.88
50394;BME280;36308;46.312;25.288;2023-04-02T02:36:29;94827.88;;;8.64;74.54
50394;BME280;36308;46.312;25.288;2023-04-02T02:41:44;94827.09;;;8.63;74.39
50394;BME280;36308;46.312;25.288;2023-04-02T02:44:33;94833.22;;;8.64;74.76
50394;BME280;36308;46.312;25.288;2023-04-02T02:50:27;94836.19;;;8.62;74.29
50394;BME280;36308;46.312;25.288;2023-04-02T02:53:02;94837.78;;;8.63;74.30
50394;BME280;36308;46.312;25.288;2023-04-02T02:55:37;94832.69;;;8.62;74.74
50394;BME280;36308;46.312;25.288;2023-04-02T02:58:04;94839.94;;;8.61;74.81
50394;BME280;36308;46.312;25.288;2023-04-02T03:00:32;94835.91;;;8.59;74.69
50394;BME280;36308;46.312;25.288;2023-04-02T03:03:03;94839.13;;;8.61;74.14
50394;BME280;36308;46.312;25.288;2023-04-02T03:05:31;94847.16;;;8.61;75.01
50394;BME280;36308;46.312;25.288;2023-04-02T03:07:57;94843.69;;;8.60;74.42
50394;BME280;36308;46.312;25.288;2023-04-02T03:10:38;94842.91;;;8.60;74.76
50394;BME280;36308;46.312;25.288;2023-04-02T03:13:19;94845.00;;;8.63;74.62
50394;BME280;36308;46.312;25.288;2023-04-02T03:15:57;94849.31;;;8.64;74.27
50394;BME280;36308;46.312;25.288;2023-04-02T03:27:19;94852.50;;;8.66;74.19
50394;BME280;36308;46.312;25.288;2023-04-02T03:30:29;94860.03;;;8.64;73.73
50394;BME280;36308;46.312;25.288;2023-04-02T03:33:31;94860.03;;;8.64;74.60
50394;BME280;36308;46.312;25.288;2023-04-02T03:36:27;94861.63;;;8.65;74.28
50394;BME280;36308;46.312;25.288;2023-04-02T03:38:58;94872.34;;;8.65;73.84
50394;BME280;36308;46.312;25.288;2023-04-02T03:41:42;94879.84;;;8.63;74.23
50394;BME280;36308;46.312;25.288;2023-04-02T03:44:22;94878.25;;;8.62;74.11
50394;BME280;36308;46.312;25.288;2023-04-02T03:46:55;94879.84;;;8.63;73.96
50394;BME280;36308;46.312;25.288;2023-04-02T03:54:28;94897.53;;;8.64;74.66
50394;BME280;36308;46.312;25.288;2023-04-02T03:56:54;94890.56;;;8.63;74.45
50394;BME280;36308;46.312;25.288;2023-04-02T04:02:10;94897.53;;;8.64;73.69
50394;BME280;36308;46.312;25.288;2023-04-02T04:04:39;94888.41;;;8.65;73.62
50394;BME280;36308;46.312;25.288;2023-04-02T04:07:13;94897.53;;;8.64;73.58
50394;BME280;36308;46.312;25.288;2023-04-02T04:13:08;94908.78;;;8.66;73.62
50394;BME280;36308;46.312;25.288;2023-04-02T04:19:08;94913.63;;;8.64;74.10
50394;BME280;36308;46.312;25.288;2023-04-02T04:21:28;94909.31;;;8.63;74.30
50394;BME280;36308;46.312;25.288;2023-04-02T04:24:13;94914.66;;;8.63;73.85
50394;BME280;36308;46.312;25.288;2023-04-02T04:26:49;94918.19;;;8.63;73.80
50394;BME280;36308;46.312;25.288;2023-04-02T04:32:35;94926.75;;;8.65;73.71
50394;BME280;36308;46.312;25.288;2023-04-02T04:37:42;94914.69;;;8.58;74.07
50394;BME280;36308;46.312;25.288;2023-04-02T04:40:19;94932.38;;;8.64;74.10
50394;BME280;36308;46.312;25.288;2023-04-02T04:42:49;94934.25;;;8.63;73.46
50394;BME280;36308;46.312;25.288;2023-04-02T04:50:53;94939.59;;;8.63;73.76
50394;BME280;36308;46.312;25.288;2023-04-02T04:53:23;94947.34;;;8.65;73.38
50394;BME280;36308;46.312;25.288;2023-04-02T04:55:52;94943.63;;;8.66;73.29
50394;BME280;36308;46.312;25.288;2023-04-02T04:58:35;94948.97;;;8.66;73.48
50394;BME280;36308;46.312;25.288;2023-04-02T05:01:36;94948.97;;;8.66;74.26
50394;BME280;36308;46.312;25.288;2023-04-02T05:04:25;94951.66;;;8.66;73.64
50394;BME280;36308;46.312;25.288;2023-04-02T05:12:55;94951.66;;;8.66;73.35
50394;BME280;36308;46.312;25.288;2023-04-02T05:15:32;94962.34;;;8.71;74.11
50394;BME280;36308;46.312;25.288;2023-04-02T05:18:55;94965.56;;;8.73;74.05
50394;BME280;36308;46.312;25.288;2023-04-02T05:21:23;94967.19;;;8.74;73.63
50394;BME280;36308;46.312;25.288;2023-04-02T05:24:36;94963.41;;;8.75;74.02
50394;BME280;36308;46.312;25.288;2023-04-02T05:26:41;94962.63;;;8.75;73.46
50394;BME280;36308;46.312;25.288;2023-04-02T05:32:35;94970.09;;;8.78;74.09
50394;BME280;36308;46.312;25.288;2023-04-02T05:35:05;94970.63;;;8.80;74.35
50394;BME280;36308;46.312;25.288;2023-04-02T05:37:32;94968.47;;;8.82;74.01
50394;BME280;36308;46.312;25.288;2023-04-02T05:43:22;94976.25;;;8.88;74.54
50394;BME280;36308;46.312;25.288;2023-04-02T05:45:54;94971.44;;;8.90;74.71
50394;BME280;36308;46.312;25.288;2023-04-02T05:48:41;94970.88;;;8.94;74.13
50394;BME280;36308;46.312;25.288;2023-04-02T05:54:37;94976.22;;;8.99;74.25
50394;BME280;36308;46.312;25.288;2023-04-02T05:57:16;94983.72;;;9.02;73.67
50394;BME280;36308;46.312;25.288;2023-04-02T05:59:54;94978.34;;;9.02;73.92
50394;BME280;36308;46.312;25.288;2023-04-02T06:05:18;94993.88;;;9.10;73.99
50394;BME280;36308;46.312;25.288;2023-04-02T06:07:58;94992.28;;;9.09;73.24
50394;BME280;36308;46.312;25.288;2023-04-02T06:10:28;94997.34;;;9.10;73.25
50394;BME280;36308;46.312;25.288;2023-04-02T06:12:57;94993.59;;;9.12;72.86
50394;BME280;36308;46.312;25.288;2023-04-02T06:15:29;94998.69;;;9.13;73.58
50394;BME280;36308;46.312;25.288;2023-04-02T06:18:03;95006.19;;;9.16;73.77
50394;BME280;36308;46.312;25.288;2023-04-02T06:20:30;94997.06;;;9.17;72.87
50394;BME280;36308;46.312;25.288;2023-04-02T06:23:03;95002.16;;;9.19;72.80
50394;BME280;36308;46.312;25.288;2023-04-02T06:25:44;95013.41;;;9.21;73.02
50394;BME280;36308;46.312;25.288;2023-04-02T06:28:25;95011.25;;;9.23;73.09
50394;BME280;36308;46.312;25.288;2023-04-02T06:34:15;95012.31;;;9.27;72.56
50394;BME280;36308;46.312;25.288;2023-04-02T06:36:42;95016.31;;;9.29;72.72
50394;BME280;36308;46.312;25.288;2023-04-02T06:39:23;95015.53;;;9.29;73.05
50394;BME280;36308;46.312;25.288;2023-04-02T06:42:20;95016.06;;;9.31;72.65
50394;BME280;36308;46.312;25.288;2023-04-02T06:44:48;95025.16;;;9.35;72.52
50394;BME280;36308;46.312;25.288;2023-04-02T06:47:36;95024.09;;;9.36;73.06
50394;BME280;36308;46.312;25.288;2023-04-02T06:50:13;95025.94;;;9.41;73.35
50394;BME280;36308;46.312;25.288;2023-04-02T06:52:45;95031.84;;;9.43;73.13
50394;BME280;36308;46.312;25.288;2023-04-02T06:55:43;95033.97;;;9.46;72.96
50394;BME280;36308;46.312;25.288;2023-04-02T06:58:09;95034.22;;;9.49;72.95
50394;BME280;36308;46.312;25.288;2023-04-02T07:00:39;95044.69;;;9.51;72.66
50394;BME280;36308;46.312;25.288;2023-04-02T07:03:12;95041.44;;;9.54;71.81
50394;BME280;36308;46.312;25.288;2023-04-02T07:05:38;95044.13;;;9.54;72.23
50394;BME280;36308;46.312;25.288;2023-04-02T07:08:05;95049.50;;;9.54;72.55
50394;BME280;36308;46.312;25.288;2023-04-02T07:10:32;95042.53;;;9.53;72.55
50394;BME280;36308;46.312;25.288;2023-04-02T07:12:58;95052.69;;;9.56;72.09
50394;BME280;36308;46.312;25.288;2023-04-02T07:15:27;95055.91;;;9.58;72.26
50394;BME280;36308;46.312;25.288;2023-04-02T07:17:52;95062.91;;;9.59;71.50
50394;BME280;36308;46.312;25.288;2023-04-02T07:20:31;95062.09;;;9.59;71.59
50394;BME280;36308;46.312;25.288;2023-04-02T07:22:57;95065.31;;;9.61;71.09
50394;BME280;36308;46.312;25.288;2023-04-02T07:25:24;95066.13;;;9.61;72.32
50394;BME280;36308;46.312;25.288;2023-04-02T07:27:50;95071.47;;;9.61;71.63
50394;BME280;36308;46.312;25.288;2023-04-02T07:30:17;95072.28;;;9.62;71.68
50394;BME280;36308;46.312;25.288;2023-04-02T07:32:42;95074.69;;;9.63;71.85
50394;BME280;36308;46.312;25.288;2023-04-02T07:35:09;95073.59;;;9.64;72.20
50394;BME280;36308;46.312;25.288;2023-04-02T07:37:35;95081.38;;;9.66;71.70
50394;BME280;36308;46.312;25.288;2023-04-02T07:40:01;95084.31;;;9.69;71.98
50394;BME280;36308;46.312;25.288;2023-04-02T07:42:28;95083.75;;;9.73;71.80
50394;BME280;36308;46.312;25.288;2023-04-02T07:44:53;95082.41;;;9.75;71.83
50394;BME280;36308;46.312;25.288;2023-04-02T07:47:19;95089.66;;;9.80;71.53
50394;BME280;36308;46.312;25.288;2023-04-02T07:49:44;95088.03;;;9.79;71.65
50394;BME280;36308;46.312;25.288;2023-04-02T07:52:10;95094.97;;;9.85;72.02
50394;BME280;36308;46.312;25.288;2023-04-02T07:54:36;95089.09;;;9.88;71.77
50394;BME280;36308;46.312;25.288;2023-04-02T07:57:02;95093.09;;;9.90;71.58
50394;BME280;36308;46.312;25.288;2023-04-02T07:59:28;95089.03;;;9.93;71.53
50394;BME280;36308;46.312;25.288;2023-04-02T08:01:53;95095.47;;;9.97;71.12
50394;BME280;36308;46.312;25.288;2023-04-02T08:04:20;95100.81;;;10.02;71.46
50394;BME280;36308;46.312;25.288;2023-04-02T08:06:48;95100.25;;;10.05;71.10
50394;BME280;36308;46.312;25.288;2023-04-02T08:09:15;95100.50;;;10.09;71.28
50394;BME280;36308;46.312;25.288;2023-04-02T08:11:41;95107.22;;;10.11;70.51
50394;BME280;36308;46.312;25.288;2023-04-02T08:14:08;95102.38;;;10.14;71.13
50394;BME280;36308;46.312;25.288;2023-04-02T08:19:11;95105.00;;;10.24;70.49
50394;BME280;36308;46.312;25.288;2023-04-02T08:21:36;95107.41;;;10.25;70.40
50394;BME280;36308;46.312;25.288;2023-04-02T08:24:02;95108.72;;;10.28;70.50
50394;BME280;36308;46.312;25.288;2023-04-02T08:26:28;95110.88;;;10.31;70.52
50394;BME280;36308;46.312;25.288;2023-04-02T08:28:54;95107.66;;;10.34;69.56
50394;BME280;36308;46.312;25.288;2023-04-02T08:31:19;95112.75;;;10.36;69.78
50394;BME280;36308;46.312;25.288;2023-04-02T08:33:45;95119.97;;;10.40;69.61
50394;BME280;36308;46.312;25.288;2023-04-02T08:36:17;95120.50;;;10.42;69.44
50394;BME280;36308;46.312;25.288;2023-04-02T08:47:18;95131.13;;;10.58;68.17
50394;BME280;36308;46.312;25.288;2023-04-02T08:49:56;95128.69;;;10.61;68.36
50394;BME280;36308;46.312;25.288;2023-04-02T08:52:25;95136.44;;;10.68;68.05
50394;BME280;36308;46.312;25.288;2023-04-02T08:54:51;95137.47;;;10.72;68.05
50394;BME280;36308;46.312;25.288;2023-04-02T08:57:41;95136.34;;;10.78;68.11
50394;BME280;36308;46.312;25.288;2023-04-02T09:00:33;95146.00;;;10.84;67.58
50394;BME280;36308;46.312;25.288;2023-04-02T09:03:17;95144.88;;;10.90;67.63
50394;BME280;36308;46.312;25.288;2023-04-02T09:12:30;95151.66;;;11.17;66.90
50394;BME280;36308;46.312;25.288;2023-04-02T09:17:37;95151.50;;;11.32;67.06
50394;BME280;36308;46.312;25.288;2023-04-02T09:20:19;95155.19;;;11.42;66.60
50394;BME280;36308;46.312;25.288;2023-04-02T09:22:48;95159.13;;;11.49;66.21
50394;BME280;36308;46.312;25.288;2023-04-02T09:25:28;95155.31;;;11.56;65.75
50394;BME280;36308;46.312;25.288;2023-04-02T09:27:58;95164.13;;;11.61;65.37
50394;BME280;36308;46.312;25.288;2023-04-02T09:33:00;95157.63;;;11.67;65.00
50394;BME280;36308;46.312;25.288;2023-04-02T09:35:30;95161.84;;;11.73;64.89
50394;BME280;36308;46.312;25.288;2023-04-02T09:40:50;95166.84;;;11.85;64.82
50394;BME280;36308;46.312;25.288;2023-04-02T09:43:23;95170.81;;;11.93;64.77
50394;BME280;36308;46.312;25.288;2023-04-02T09:54:14;95176.44;;;12.21;63.93
50394;BME280;36308;46.312;25.288;2023-04-02T09:56:58;95170.97;;;12.26;63.81
50394;BME280;36308;46.312;25.288;2023-04-02T09:59:25;95172.75;;;12.36;63.53
50394;BME280;36308;46.312;25.288;2023-04-02T10:04:55;95178.28;;;12.44;62.94
50394;BME280;36308;46.312;25.288;2023-04-02T10:07:43;95176.03;;;12.51;63.22
50394;BME280;36308;46.312;25.288;2023-04-02T10:10:28;95186.75;;;12.57;62.77
50394;BME280;36308;46.312;25.288;2023-04-02T10:21:22;95178.50;;;12.67;62.19
50394;BME280;36308;46.312;25.288;2023-04-02T10:23:49;95185.53;;;12.68;62.16
50394;BME280;36308;46.312;25.288;2023-04-02T10:26:40;95188.41;;;12.71;62.26
50394;BME280;36308;46.312;25.288;2023-04-02T10:32:04;95196.13;;;12.78;61.93
50394;BME280;36308;46.312;25.288;2023-04-02T10:37:24;95187.38;;;12.86;62.29
50394;BME280;36308;46.312;25.288;2023-04-02T10:39:56;95198.13;;;12.91;61.81
50394;BME280;36308;46.312;25.288;2023-04-02T10:42:49;95197.53;;;12.94;61.60
50394;BME280;36308;46.312;25.288;2023-04-02T10:45:43;95202.84;;;13.00;61.92
50394;BME280;36308;46.312;25.288;2023-04-02T10:48:50;95194.66;;;13.05;61.63
50394;BME280;36308;46.312;25.288;2023-04-02T11:03:01;95207.22;;;13.33;61.42
50394;BME280;36308;46.312;25.288;2023-04-02T11:07:55;95200.56;;;13.45;60.90
50394;BME280;36308;46.312;25.288;2023-04-02T11:10:21;95205.84;;;13.50;60.96
50394;BME280;36308;46.312;25.288;2023-04-02T11:13:01;95202.75;;;13.57;60.92
50394;BME280;36308;46.312;25.288;2023-04-02T11:15:29;95206.69;;;13.64;60.56
50394;BME280;36308;46.312;25.288;2023-04-02T11:17:55;95198.47;;;13.69;60.22
50394;BME280;36308;46.312;25.288;2023-04-02T11:21:02;95201.91;;;13.75;59.59
50394;BME280;36308;46.312;25.288;2023-04-02T11:23:34;95195.81;;;13.83;59.73
50394;BME280;36308;46.312;25.288;2023-04-02T11:26:30;95197.03;;;13.91;58.98
50394;BME280;36308;46.312;25.288;2023-04-02T11:31:47;95194.31;;;14.05;59.02
50394;BME280;36308;46.312;25.288;2023-04-02T11:37:40;95190.13;;;14.12;57.97
50394;BME280;36308;46.312;25.288;2023-04-02T11:50:42;95199.03;;;14.27;56.16
50394;BME280;36308;46.312;25.288;2023-04-02T11:55:46;95205.94;;;14.33;55.81
50394;BME280;36308;46.312;25.288;2023-04-02T12:09:57;95186.72;;;14.34;56.37
50394;BME280;36308;46.312;25.288;2023-04-02T12:14:58;95195.53;;;14.40;55.44
50394;BME280;36308;46.312;25.288;2023-04-02T12:19:52;95193.31;;;14.42;55.74
50394;BME280;36308;46.312;25.288;2023-04-02T12:22:21;95199.69;;;14.46;55.95
50394;BME280;36308;46.312;25.288;2023-04-02T12:24:48;95201.03;;;14.49;55.71
50394;BME280;36308;46.312;25.288;2023-04-02T12:27:19;95191.78;;;14.50;55.83
50394;BME280;36308;46.312;25.288;2023-04-02T12:29:49;95193.31;;;14.56;56.33
50394;BME280;36308;46.312;25.288;2023-04-02T12:32:26;95195.09;;;14.61;55.98
50394;BME280;36308;46.312;25.288;2023-04-02T12:34:54;95192.31;;;14.66;56.02
50394;BME280;36308;46.312;25.288;2023-04-02T12:37:26;95200.91;;;14.68;55.61
50394;BME280;36308;46.312;25.288;2023-04-02T12:40:00;95194.38;;;14.69;55.06
50394;BME280;36308;46.312;25.288;2023-04-02T12:42:34;95190.09;;;14.68;54.65
50394;BME280;36308;46.312;25.288;2023-04-02T12:45:01;95195.31;;;14.64;53.97
50394;BME280;36308;46.312;25.288;2023-04-02T12:47:28;95192.09;;;14.62;53.90
50394;BME280;36308;46.312;25.288;2023-04-02T12:49:55;95186.81;;;14.57;54.06
50394;BME280;36308;46.312;25.288;2023-04-02T12:52:24;95194.19;;;14.51;54.36
50394;BME280;36308;46.312;25.288;2023-04-02T12:54:58;95196.69;;;14.48;54.39
50394;BME280;36308;46.312;25.288;2023-04-02T12:59:50;95189.38;;;14.48;54.81
50394;BME280;36308;46.312;25.288;2023-04-02T13:02:23;95184.97;;;14.52;54.47
50394;BME280;36308;46.312;25.288;2023-04-02T13:04:54;95194.94;;;14.57;54.52
50394;BME280;36308;46.312;25.288;2023-04-02T13:07:22;95194.03;;;14.62;54.19
50394;BME280;36308;46.312;25.288;2023-04-02T13:10:00;95195.31;;;14.64;54.18
50394;BME280;36308;46.312;25.288;2023-04-02T13:12:37;95199.31;;;14.67;53.85
50394;BME280;36308;46.312;25.288;2023-04-02T13:15:06;95197.09;;;14.69;53.66
50394;BME280;36308;46.312;25.288;2023-04-02T13:17:40;95195.50;;;14.68;53.18
50394;BME280;36308;46.312;25.288;2023-04-02T13:22:54;95191.13;;;14.58;52.25
50394;BME280;36308;46.312;25.288;2023-04-02T13:25:27;95194.19;;;14.51;52.28
50394;BME280;36308;46.312;25.288;2023-04-02T13:27:53;95198.63;;;14.47;52.43
50394;BME280;36308;46.312;25.288;2023-04-02T13:30:24;95203.03;;;14.43;52.70
50394;BME280;36308;46.312;25.288;2023-04-02T13:32:50;95200.63;;;14.42;52.94
50394;BME280;36308;46.312;25.288;2023-04-02T13:35:16;95201.53;;;14.37;53.18
50394;BME280;36308;46.312;25.288;2023-04-02T13:37:42;95205.94;;;14.33;53.54
50394;BME280;36308;46.312;25.288;2023-04-02T13:40:12;95202.72;;;14.31;53.28
50394;BME280;36308;46.312;25.288;2023-04-02T13:42:41;95211.97;;;14.30;53.30
50394;BME280;36308;46.312;25.288;2023-04-02T13:45:28;95207.13;;;14.27;53.65
50394;BME280;36308;46.312;25.288;2023-04-02T13:47:54;95203.44;;;14.23;53.58
50394;BME280;36308;46.312;25.288;2023-04-02T13:50:25;95209.13;;;14.21;53.76
50394;BME280;36308;46.312;25.288;2023-04-02T13:52:52;95204.34;;;14.18;53.58
50394;BME280;36308;46.312;25.288;2023-04-02T13:55:21;95206.84;;;14.14;53.69
50394;BME280;36308;46.312;25.288;2023-04-02T13:57:48;95203.44;;;14.09;53.45
50394;BME280;36308;46.312;25.288;2023-04-02T14:00:15;95205.94;;;14.05;53.43
50394;BME280;36308;46.312;25.288;2023-04-02T14:02:44;95205.75;;;14.02;53.35
50394;BME280;36308;46.312;25.288;2023-04-02T14:08:22;95207.72;;;13.96;53.58
50394;BME280;36308;46.312;25.288;2023-04-02T14:24:39;95220.75;;;13.94;54.40
50394;BME280;36308;46.312;25.288;2023-04-02T14:27:36;95211.53;;;13.95;54.62
50394;BME280;36308;46.312;25.288;2023-04-02T14:33:05;95216.56;;;14.02;55.01
50394;BME280;36308;46.312;25.288;2023-04-02T14:35:37;95211.34;;;14.05;54.83
50394;BME280;36308;46.312;25.288;2023-04-02T14:40:49;95218.66;;;14.19;54.94
50394;BME280;36308;46.312;25.288;2023-04-02T14:43:30;95215.53;;;14.25;54.91
50394;BME280;36308;46.312;25.288;2023-04-02T14:46:01;95213.25;;;14.32;54.81
50394;BME280;36308;46.312;25.288;2023-04-02T14:51:04;95224.38;;;14.45;54.48
50394;BME280;36308;46.312;25.288;2023-04-02T14:53:40;95212.63;;;14.49;53.83
50394;BME280;36308;46.312;25.288;2023-04-02T14:56:08;95212.50;;;14.54;54.03
50394;BME280;36308;46.312;25.288;2023-04-02T14:58:42;95217.56;;;14.61;53.84
50394;BME280;36308;46.312;25.288;2023-04-02T15:01:18;95222.38;;;14.64;53.31
50394;BME280;36308;46.312;25.288;2023-04-02T15:03:49;95223.16;;;14.65;52.81
50394;BME280;36308;46.312;25.288;2023-04-02T15:06:22;95222.38;;;14.64;52.24
50394;BME280;36308;46.312;25.288;2023-04-02T15:08:54;95219.94;;;14.63;52.22
50394;BME280;36308;46.312;25.288;2023-04-02T15:11:29;95221.56;;;14.64;52.17
50394;BME280;36308;46.312;25.288;2023-04-02T15:14:15;95225.34;;;14.63;52.04
50394;BME280;36308;46.312;25.288;2023-04-02T15:17:00;95229.19;;;14.62;52.07
50394;BME280;36308;46.312;25.288;2023-04-02T15:19:26;95227.56;;;14.61;51.88
50394;BME280;36308;46.312;25.288;2023-04-02T15:22:06;95229.78;;;14.59;51.70
50394;BME280;36308;46.312;25.288;2023-04-02T15:30:43;95238.47;;;14.42;51.75
50394;BME280;36308;46.312;25.288;2023-04-02T15:33:42;95243.22;;;14.36;51.75
50394;BME280;36308;46.312;25.288;2023-04-02T15:38:44;95244.59;;;14.20;52.78
50394;BME280;36308;46.312;25.288;2023-04-02T15:43:55;95250.97;;;13.96;53.75
50394;BME280;36308;46.312;25.288;2023-04-02T15:52:46;95260.97;;;13.49;56.07
50394;BME280;36308;46.312;25.288;2023-04-02T15:55:33;95266.03;;;13.37;56.39
50394;BME280;36308;46.312;25.288;2023-04-02T15:58:24;95264.53;;;13.25;56.92
50394;BME280;36308;46.312;25.288;2023-04-02T16:06:24;95277.53;;;12.85;58.36
50394;BME280;36308;46.312;25.288;2023-04-02T16:11:50;95284.47;;;12.67;59.16
50394;BME280;36308;46.312;25.288;2023-04-02T16:16:50;95286.50;;;12.57;59.51
50394;BME280;36308;46.312;25.288;2023-04-02T16:19:39;95300.06;;;12.51;60.02
50394;BME280;36308;46.312;25.288;2023-04-02T16:22:22;95299.59;;;12.44;60.08
50394;BME280;36308;46.312;25.288;2023-04-02T16:24:56;95296.44;;;12.37;60.71
50394;BME280;36308;46.312;25.288;2023-04-02T16:30:28;95309.00;;;12.23;61.08
50394;BME280;36308;46.312;25.288;2023-04-02T16:41:18;95307.81;;;12.05;61.68
50394;BME280;36308;46.312;25.288;2023-04-02T16:44:02;95315.97;;;12.00;61.82
50394;BME280;36308;46.312;25.288;2023-04-02T16:55:21;95321.72;;;11.83;62.55
50394;BME280;36308;46.312;25.288;2023-04-02T17:06:22;95341.34;;;11.54;62.79
50394;BME280;36308;46.312;25.288;2023-04-02T17:11:46;95344.13;;;11.39;62.16
50394;BME280;36308;46.312;25.288;2023-04-02T17:16:46;95349.59;;;11.28;62.59
50394;BME280;36308;46.312;25.288;2023-04-02T17:19:15;95355.00;;;11.23;62.93
50394;BME280;36308;46.312;25.288;2023-04-02T17:21:45;95349.63;;;11.18;63.09
50394;BME280;36308;46.312;25.288;2023-04-02T17:30:13;95349.22;;;11.01;62.03
50394;BME280;36308;46.312;25.288;2023-04-02T17:32:40;95349.50;;;10.94;62.20
50394;BME280;36308;46.312;25.288;2023-04-02T17:35:21;95354.63;;;10.90;61.72
50394;BME280;36308;46.312;25.288;2023-04-02T17:41:51;95357.91;;;10.82;62.10
50394;BME280;36308;46.312;25.288;2023-04-02T17:44:35;95356.84;;;10.78;62.65
50394;BME280;36308;46.312;25.288;2023-04-02T17:50:22;95357.94;;;10.72;62.20
50394;BME280;36308;46.312;25.288;2023-04-02T18:11:35;95374.16;;;10.41;62.24
50394;BME280;36308;46.312;25.288;2023-04-02T18:28:48;95392.97;;;10.16;62.17
50394;BME280;36308;46.312;25.288;2023-04-02T18:47:47;95397.28;;;9.81;62.83
50394;BME280;36308;46.312;25.288;2023-04-02T18:50:23;95398.63;;;9.78;62.35
50394;BME280;36308;46.312;25.288;2023-04-02T18:52:52;95391.38;;;9.74;63.06
50394;BME280;36308;46.312;25.288;2023-04-02T18:55:20;95401.84;;;9.70;63.31
50394;BME280;36308;46.312;25.288;2023-04-02T18:57:49;95399.13;;;9.65;63.73
50394;BME280;36308;46.312;25.288;2023-04-02T19:10:38;95416.06;;;9.55;63.82
50394;BME280;36308;46.312;25.288;2023-04-02T19:13:12;95414.19;;;9.50;64.29
50394;BME280;36308;46.312;25.288;2023-04-02T19:16:03;95417.13;;;9.49;64.18
50394;BME280;36308;46.312;25.288;2023-04-02T19:35:57;95441.19;;;9.23;64.25
50394;BME280;36308;46.312;25.288;2023-04-02T19:41:47;95447.34;;;9.14;65.32
50394;BME280;36308;46.312;25.288;2023-04-02T19:44:16;95441.69;;;9.10;65.48
50394;BME280;36308;46.312;25.288;2023-04-02T19:46:42;95439.00;;;9.05;65.51
50394;BME280;36308;46.312;25.288;2023-04-02T19:49:15;95444.88;;;9.02;64.81
50394;BME280;36308;46.312;25.288;2023-04-02T19:51:42;95437.34;;;8.99;65.54
50394;BME280;36308;46.312;25.288;2023-04-02T19:54:08;95445.91;;;8.96;65.29
50394;BME280;36308;46.312;25.288;2023-04-02T19:56:33;95451.81;;;8.93;65.24